Time;durP1;ratioP1;P1;durP2;ratioP2;P2;SDS_P1;SDS_P2;PMS_P1;PMS_P2;Temp;Humidity;BMP_temperature;BMP_pressure;BME280_temperature;BME280_humidity;BME280_pressure;Samples;Min_cycle;Max_cycle;Signal;HPM_P1;HPM_P2
2021/08/21 00:01:38;;;;;;;6.97;5.23;;;;;;;15.73;86.03;101842.06;5095587;28;19998;-35
2021/08/21 00:04:04;;;;;;;;;;;;;;;15.96;84.66;101858.34;5095722;28;20386;-35
2021/08/21 00:06:29;;;;;;;6.13;5.05;;;;;;;15.73;86.10;101837.44;5094648;28;20383;-35
2021/08/21 00:08:55;;;;;;;;;;;;;;;15.98;84.33;101852.66;5095188;28;20157;-35
2021/08/21 00:11:20;;;;;;;7.10;5.60;;;;;;;15.75;86.74;101845.34;5095284;28;20006;-36
2021/08/21 00:13:45;;;;;;;9.83;6.70;;;;;;;15.77;86.69;101854.97;5094728;28;20341;-36
2021/08/21 00:16:11;;;;;;;7.75;5.75;;;;;;;15.78;86.80;101855.78;5094635;28;20242;-36
2021/08/21 00:18:36;;;;;;;8.23;6.78;;;;;;;15.78;87.14;101850.34;5094489;28;20020;-36
2021/08/21 00:21:01;;;;;;;;;;;;;;;15.96;85.18;101844.72;5095038;28;20035;-36
2021/08/21 00:23:27;;;;;;;8.98;7.45;;;;;;;15.72;86.95;101834.94;5094502;28;19911;-36
2021/08/21 00:25:52;;;;;;;8.45;6.95;;;;;;;15.86;86.82;101847.22;5095047;28;20091;-36
2021/08/21 00:28:17;;;;;;;9.33;7.67;;;;;;;15.86;86.88;101842.63;5094309;28;20020;-36
2021/08/21 00:30:43;;;;;;;8.83;7.07;;;;;;;15.85;86.85;101856.47;5093495;28;20419;-36
2021/08/21 00:33:08;;;;;;;9.77;7.37;;;;;;;15.78;87.64;101848.44;5095074;28;20343;-36
2021/08/21 00:35:33;;;;;;;15.57;8.00;;;;;;;15.77;87.94;101854.97;5094481;28;20274;-36
2021/08/21 00:37:59;;;;;;;7.68;6.95;;;;;;;15.77;87.55;101852.25;5094296;28;20287;-36
2021/08/21 00:40:24;;;;;;;;;;;;;;;15.93;86.15;101854.19;5094869;28;20428;-36
2021/08/21 00:42:51;;;;;;;8.57;7.43;;;;;;;15.70;87.68;101830.53;5093811;28;19941;-36
2021/08/21 00:45:16;;;;;;;9.68;8.68;;;;;;;15.79;88.47;101850.09;5094113;28;20024;-36
2021/08/21 00:47:42;;;;;;;11.23;9.00;;;;;;;15.70;88.06;101836.00;5094125;28;20024;-36
2021/08/21 00:50:08;;;;;;;9.45;8.38;;;;;;;15.67;88.07;101850.13;5093952;28;20095;-36
2021/08/21 00:52:34;;;;;;;;;;;;;;;15.87;86.50;101847.00;5095233;28;20092;-36
2021/08/21 00:55:00;;;;;;;9.07;8.18;;;;;;;15.58;87.97;101829.72;5093882;28;19911;-36
2021/08/21 00:57:27;;;;;;;8.65;7.75;;;;;;;15.59;88.12;101842.28;5093965;28;20031;-36
2021/08/21 00:59:53;;;;;;;8.80;7.90;;;;;;;15.49;87.99;101836.63;5093508;28;20032;-36
2021/08/21 01:02:20;;;;;;;9.60;8.60;;;;;;;15.51;87.94;101841.81;5093823;28;20028;-36
2021/08/21 01:04:48;;;;;;;8.90;7.47;;;;;;;15.44;88.31;101844.69;5093966;28;20126;-36
2021/08/21 01:07:16;;;;;;;9.45;7.82;;;;;;;15.31;88.02;101834.03;5093462;28;20032;-36
2021/08/21 01:09:43;;;;;;;11.05;7.97;;;;;;;15.30;88.06;101826.91;5093602;28;20031;-36
2021/08/21 01:12:11;;;;;;;10.82;7.55;;;;;;;15.28;88.23;101829.06;5093444;28;20080;-36
2021/08/21 01:14:37;;;;;;;9.77;7.75;;;;;;;15.30;88.11;101837.81;5093612;28;20051;-36
2021/08/21 01:17:04;;;;;;;9.77;7.75;;;;;;;15.25;87.93;101835.81;5094287;28;20020;-36
2021/08/21 01:19:35;;;;;;;10.63;8.13;;;;;;;15.26;88.47;101839.38;5093330;28;20020;-36
2021/08/21 01:22:00;;;;;;;10.70;7.88;;;;;;;15.22;88.42;101830.81;5093714;28;20028;-36
2021/08/21 01:24:26;;;;;;;12.13;7.90;;;;;;;15.22;88.28;101839.00;5093426;28;20081;-36
2021/08/21 01:26:56;;;;;;;9.03;7.73;;;;;;;15.16;88.52;101831.78;5093162;28;20250;-36
2021/08/21 01:29:22;;;;;;;10.60;7.63;;;;;;;15.17;88.85;101841.59;5093776;28;20254;-36
2021/08/21 01:31:49;;;;;;;8.45;7.50;;;;;;;15.13;88.63;101844.00;5093799;28;20360;-36
2021/08/21 01:34:15;;;;;;;10.57;8.15;;;;;;;15.06;88.75;101837.81;5093564;28;20059;-36
2021/08/21 01:36:42;;;;;;;9.38;7.93;;;;;;;15.12;88.33;101842.31;5093934;28;20075;-36
2021/08/21 01:39:10;;;;;;;10.98;7.93;;;;;;;15.08;88.75;101840.31;5093550;28;20571;-36
2021/08/21 01:41:35;;;;;;;8.77;7.60;;;;;;;15.20;88.64;101836.53;5092745;28;20464;-36
2021/08/21 01:44:01;;;;;;;8.88;7.55;;;;;;;15.15;88.96;101839.13;5092863;28;20103;-36
2021/08/21 01:46:26;;;;;;;10.75;7.88;;;;;;;15.17;88.89;101836.97;5093586;28;20107;-36
2021/08/21 01:48:51;;;;;;;7.90;7.10;;;;;;;14.99;88.69;101820.78;5093053;28;20099;-36
2021/08/21 01:51:17;;;;;;;12.30;7.93;;;;;;;15.07;88.76;101839.47;5092919;28;20012;-36
2021/08/21 01:53:42;;;;;;;11.48;7.85;;;;;;;15.01;88.81;101832.25;5093200;28;20027;-36
2021/08/21 01:56:08;;;;;;;11.10;8.38;;;;;;;15.02;88.75;101827.63;5093035;28;20028;-35
2021/08/21 01:58:34;;;;;;;9.85;8.13;;;;;;;14.93;89.32;101814.41;5092979;28;20095;-36
2021/08/21 02:01:00;;;;;;;12.38;8.10;;;;;;;15.05;89.14;101828.00;5093100;28;20050;-36
2021/08/21 02:03:26;;;;;;;10.02;7.45;;;;;;;14.95;88.89;101830.50;5092978;28;20017;-36
2021/08/21 02:05:52;;;;;;;9.48;7.50;;;;;;;14.93;89.20;101832.59;5093234;28;20345;-36
2021/08/21 02:08:17;;;;;;;;;;;;;;;15.10;87.89;101825.41;5093044;28;20024;-36
2021/08/21 02:10:43;;;;;;;8.70;6.93;;;;;;;14.88;88.86;101824.31;5092836;28;19908;-36
2021/08/21 02:13:08;;;;;;;7.90;7.13;;;;;;;14.83;90.06;101825.00;5092952;28;20020;-36
2021/08/21 02:15:33;;;;;;;11.65;7.68;;;;;;;14.75;90.09;101821.84;5093231;28;20413;-36
2021/08/21 02:17:59;;;;;;;8.45;7.13;;;;;;;14.81;90.13;101823.59;5092914;28;20024;-36
2021/08/21 02:20:24;;;;;;;7.28;6.55;;;;;;;14.88;90.06;101827.03;5092838;28;20028;-36
2021/08/21 02:22:50;;;;;;;8.55;7.53;;;;;;;14.84;89.92;101823.16;5092848;28;20414;-36
2021/08/21 02:25:16;;;;;;;9.95;8.50;;;;;;;14.90;90.24;101827.66;5093054;28;20024;-36
2021/08/21 02:27:55;;;;;;;9.48;7.78;;;;;;;14.81;90.15;101810.00;5093400;28;20069;-36
2021/08/21 02:30:21;;;;;;;11.50;8.95;;;;;;;14.91;90.58;101832.84;5092573;28;20483;-36
2021/08/21 02:32:46;;;;;;;9.38;8.15;;;;;;;14.94;90.54;101826.94;5092917;28;20016;-36
2021/08/21 02:35:11;;;;;;;12.37;8.43;;;;;;;14.97;90.94;101830.25;5092543;28;20082;-36
2021/08/21 02:37:37;;;;;;;9.40;7.93;;;;;;;14.80;90.63;101790.09;5092986;28;20278;-36
2021/08/21 02:40:03;;;;;;;11.60;9.13;;;;;;;15.01;90.98;101821.38;5090853;28;20278;-36
2021/08/21 02:42:29;;;;;;;9.43;8.43;;;;;;;14.90;90.90;101808.59;5092322;28;20441;-36
2021/08/21 02:44:54;;;;;;;10.60;8.88;;;;;;;15.05;91.01;101825.28;5092315;28;20043;-36
2021/08/21 02:47:20;;;;;;;10.47;8.80;;;;;;;15.11;90.99;101823.50;5092764;28;20392;-36
2021/08/21 02:49:45;;;;;;;12.57;9.17;;;;;;;15.16;90.59;101826.34;5093069;28;20024;-36
2021/08/21 02:52:10;;;;;;;10.47;8.40;;;;;;;15.13;90.50;101816.75;5093095;28;20270;-36
2021/08/21 02:54:36;;;;;;;11.90;9.38;;;;;;;15.05;90.69;101819.81;5096246;28;20015;-36
2021/08/21 02:57:01;;;;;;;10.60;8.77;;;;;;;15.22;90.61;101827.28;5096397;28;20046;-36
2021/08/21 02:59:26;;;;;;;9.63;8.52;;;;;;;15.24;90.72;101830.59;5095906;28;20028;-36
2021/08/21 03:01:52;;;;;;;10.20;9.10;;;;;;;15.28;90.46;101829.06;5096643;28;20024;-36
2021/08/21 03:04:17;;;;;;;9.13;8.23;;;;;;;15.27;91.07;101817.31;5095689;28;20016;-36
2021/08/21 03:06:43;;;;;;;9.98;8.65;;;;;;;15.25;90.67;101814.00;5096398;28;20081;-36
2021/08/21 03:09:08;;;;;;;10.40;9.13;;;;;;;15.24;90.55;101806.91;5095965;28;20048;-36
2021/08/21 03:11:33;;;;;;;12.10;9.33;;;;;;;15.33;90.49;101821.00;5095557;28;20100;-36
2021/08/21 03:13:58;;;;;;;11.43;8.80;;;;;;;15.29;90.19;101825.28;5095935;28;20266;-36
2021/08/21 03:16:24;;;;;;;10.90;9.33;;;;;;;15.33;90.53;101818.28;5095607;28;20258;-36
2021/08/21 03:18:49;;;;;;;11.75;9.45;;;;;;;15.32;90.52;101814.69;5095608;28;20035;-36
2021/08/21 03:21:15;;;;;;;13.18;10.13;;;;;;;15.21;90.43;101796.47;5095893;28;20024;-36
2021/08/21 03:23:42;;;;;;;11.60;10.20;;;;;;;15.32;90.60;101820.16;5095674;28;20399;-36
2021/08/21 03:26:07;;;;;;;12.43;10.20;;;;;;;15.32;91.01;101813.88;5095503;28;20027;-36
2021/08/21 03:28:33;;;;;;;11.98;10.63;;;;;;;15.31;91.38;101817.66;5095667;28;20020;-36
2021/08/21 03:30:58;;;;;;;13.57;10.38;;;;;;;15.36;90.81;101815.06;5095595;28;20097;-36
2021/08/21 03:33:23;;;;;;;12.00;10.13;;;;;;;15.28;91.23;101810.00;5095485;28;20046;-36
2021/08/21 03:35:49;;;;;;;12.80;10.48;;;;;;;15.33;91.63;101818.28;5095466;28;20133;-36
2021/08/21 03:38:15;;;;;;;12.30;11.00;;;;;;;15.28;91.27;101805.38;5095149;28;20103;-36
2021/08/21 03:40:41;;;;;;;;;;;;;;;15.40;90.49;101818.97;5095938;28;20460;-36
2021/08/21 03:43:06;;;;;;;15.35;11.55;;;;;;;15.26;91.75;101810.22;5095109;28;20006;-36
2021/08/21 03:45:32;;;;;;;14.95;11.30;;;;;;;15.30;91.86;101810.56;5095796;28;20027;-36
2021/08/21 03:47:57;;;;;;;15.15;10.73;;;;;;;15.33;91.56;101805.47;5095349;28;20051;-36
2021/08/21 03:50:22;;;;;;;15.02;11.23;;;;;;;15.35;92.16;101803.34;5095382;28;20024;-36
2021/08/21 03:52:48;;;;;;;12.30;11.07;;;;;;;15.39;92.14;101809.13;5095428;28;20020;-36
2021/08/21 03:55:14;;;;;;;13.90;11.23;;;;;;;15.34;91.90;101804.41;5094805;28;20107;-36
2021/08/21 03:57:39;;;;;;;11.10;9.20;;;;;;;15.37;91.84;101792.19;5095525;28;20354;-36
2021/08/21 04:00:06;;;;;;;15.03;11.00;;;;;;;15.39;92.02;101798.25;5095630;28;20070;-36
2021/08/21 04:02:31;;;;;;;;;;;;;;;15.53;90.57;101796.91;5095941;28;20016;-36
2021/08/21 04:04:56;;;;;;;12.70;11.27;;;;;;;15.41;91.83;101807.00;5094965;28;19904;-36
2021/08/21 04:07:21;;;;;;;13.27;10.90;;;;;;;15.40;91.60;101799.88;5095100;28;20257;-36
2021/08/21 04:09:47;;;;;;;;;;;;;;;15.52;90.51;101803.44;5095768;28;20024;-36
2021/08/21 04:12:18;;;;;;;15.37;11.60;;;;;;;15.37;91.81;101806.66;5094999;28;20016;-36
2021/08/21 04:14:43;;;;;;;17.00;12.93;;;;;;;15.34;92.46;101807.13;5094523;28;20359;-36
2021/08/21 04:17:08;;;;;;;14.20;12.35;;;;;;;15.27;92.15;101794.69;5095506;28;20032;-36
2021/08/21 04:19:34;;;;;;;13.93;11.73;;;;;;;15.38;91.90;101804.75;5094692;28;20065;-36
2021/08/21 04:21:59;;;;;;;16.83;13.27;;;;;;;15.36;92.08;101804.97;5094929;28;20061;-37
2021/08/21 04:24:24;;;;;;;15.30;13.68;;;;;;;15.34;92.72;101800.84;5095312;28;20023;-36
2021/08/21 04:26:50;;;;;;;17.00;14.43;;;;;;;15.28;93.36;101799.09;5094489;28;20031;-36
2021/08/21 04:29:15;;;;;;;17.30;14.13;;;;;;;15.29;93.29;101798.03;5094415;28;20028;-36
2021/08/21 04:31:40;;;;;;;18.10;14.87;;;;;;;15.24;93.27;101801.47;5094582;28;20274;-36
2021/08/21 04:34:06;;;;;;;18.83;15.27;;;;;;;15.22;93.60;101800.03;5094346;28;20349;-36
2021/08/21 04:36:31;;;;;;;17.43;14.60;;;;;;;15.18;93.74;101802.44;5095145;28;20686;-36
2021/08/21 04:38:57;;;;;;;19.27;14.38;;;;;;;15.10;93.69;101794.59;5094250;28;20044;-36
2021/08/21 04:41:23;;;;;;;15.77;13.97;;;;;;;15.10;93.29;101789.97;5094226;28;20093;-36
2021/08/21 04:43:48;;;;;;;18.77;14.50;;;;;;;15.05;93.31;101778.97;5094133;28;20266;-36
2021/08/21 04:46:14;;;;;;;19.83;15.70;;;;;;;15.15;93.23;101786.53;5094121;28;20254;-36
2021/08/21 04:48:39;;;;;;;18.70;13.40;;;;;;;15.21;93.15;101796.47;5094125;28;20646;-36
2021/08/21 04:51:04;;;;;;;18.20;15.10;;;;;;;15.32;93.17;101803.81;5093967;28;20082;-36
2021/08/21 04:53:30;;;;;;;17.67;14.23;;;;;;;15.28;93.33;101802.66;5093749;28;20274;-36
2021/08/21 04:55:55;;;;;;;20.13;16.07;;;;;;;15.32;92.82;101792.91;5094090;28;20705;-36
2021/08/21 04:58:20;;;;;;;15.00;13.20;;;;;;;15.39;92.80;101799.06;5093653;28;20266;-36
2021/08/21 05:00:45;;;;;;;22.97;15.73;;;;;;;15.39;93.17;101803.69;5093220;28;20028;-36
2021/08/21 05:03:11;;;;;;;18.43;14.53;;;;;;;15.41;93.01;101802.38;5094143;28;20266;-36
2021/08/21 05:05:36;;;;;;;18.30;14.02;;;;;;;15.45;92.33;101805.44;5094510;28;20109;-36
2021/08/21 05:08:02;;;;;;;21.00;16.42;;;;;;;15.40;92.99;101802.63;5094165;28;20077;-36
2021/08/21 05:10:27;;;;;;;21.45;17.77;;;;;;;15.38;92.88;101802.88;5094471;28;20114;-36
2021/08/21 05:12:52;;;;;;;;;;;;;;;15.51;92.05;101807.22;5094267;28;20077;-36
2021/08/21 05:15:18;;;;;;;17.17;13.45;;;;;;;15.48;92.35;101815.88;5093512;28;20255;-36
2021/08/21 05:17:44;;;;;;;20.50;16.52;;;;;;;15.36;92.58;101798.72;5093810;28;20020;-36
2021/08/21 05:20:17;;;;;;;18.00;15.13;;;;;;;15.48;92.53;101812.34;5093600;28;20024;-36
2021/08/21 05:25:11;;;;;;;20.13;17.15;;;;;;;15.52;92.62;101808.03;5093631;28;20043;-36
2021/08/21 05:27:36;;;;;;;18.65;15.63;;;;;;;15.53;92.03;101807.81;5093975;28;20056;-36
2021/08/21 05:30:04;;;;;;;20.10;17.65;;;;;;;15.52;91.91;101814.34;5093215;28;20468;-36
2021/08/21 05:32:34;;;;;;;20.08;17.23;;;;;;;15.53;92.12;101826.06;5093378;28;20102;-36
2021/08/21 05:34:59;;;;;;;23.98;19.05;;;;;;;15.52;92.86;101825.25;5093517;28;20048;-36
2021/08/21 05:37:25;;;;;;;23.63;19.87;;;;;;;15.43;92.29;101811.16;5093400;28;20031;-36
2021/08/21 05:39:50;;;;;;;27.35;20.55;;;;;;;15.52;92.92;101825.25;5093301;28;20122;-36
2021/08/21 05:42:16;;;;;;;26.23;20.77;;;;;;;15.42;92.91;101809.50;5094280;28;20020;-36
2021/08/21 05:44:41;;;;;;;24.02;20.27;;;;;;;15.49;92.57;101811.25;5093524;28;20519;-36
2021/08/21 05:47:07;;;;;;;22.63;19.67;;;;;;;15.54;92.92;101809.47;5093354;28;20345;-36
2021/08/21 05:49:32;;;;;;;24.45;21.13;;;;;;;15.53;92.74;101809.72;5092884;28;20119;-36
2021/08/21 05:51:57;;;;;;;28.23;22.75;;;;;;;15.61;93.03;101825.69;5092003;28;20027;-36
2021/08/21 05:54:23;;;;;;;27.08;21.55;;;;;;;15.55;93.32;101810.28;5093960;28;20024;-36
2021/08/21 05:56:48;;;;;;;31.92;23.10;;;;;;;15.58;93.97;101829.72;5093570;28;20028;-36
2021/08/21 05:59:13;;;;;;;24.73;21.10;;;;;;;15.59;93.37;101819.66;5093453;28;20024;-37
2021/08/21 06:01:39;;;;;;;29.08;22.33;;;;;;;15.69;93.41;101823.44;5094028;28;20099;-36
2021/08/21 06:04:05;;;;;;;;;;;;;;;15.74;92.91;101830.91;5093708;28;20065;-36
2021/08/21 06:06:33;;;;;;;29.40;22.67;;;;;;;15.65;93.15;101819.53;5093846;28;19903;-37
2021/08/21 06:08:58;;;;;;;23.67;21.13;;;;;;;15.74;92.58;101816.44;5093657;28;20028;-37
2021/08/21 06:11:24;;;;;;;26.33;21.43;;;;;;;15.77;92.99;101824.97;5092712;28;20451;-37
2021/08/21 06:13:49;;;;;;;27.63;21.83;;;;;;;15.71;92.91;101820.47;5093328;28;20262;-36
2021/08/21 06:16:15;;;;;;;24.65;20.23;;;;;;;15.68;92.86;101813.59;5093553;28;20024;-36
2021/08/21 06:18:40;;;;;;;;;;;;;;;15.84;92.39;101820.19;5094213;28;20333;-36
2021/08/21 06:21:05;;;;;;;26.23;20.20;;;;;;;15.85;93.42;101819.13;5093574;28;20229;-40
2021/08/21 06:23:31;;;;;;;26.45;22.48;;;;;;;15.92;94.19;101832.63;5092738;28;20031;-36
2021/08/21 06:25:57;;;;;;;;;;;;;;;16.05;93.35;101826.03;5094290;28;20441;-36
2021/08/21 06:28:22;;;;;;;30.70;23.00;;;;;;;16.03;94.22;101826.28;5095750;28;19912;-36
2021/08/21 06:30:47;;;;;;;;;;;;;;;16.19;92.88;101836.41;5097700;28;20125;-37
2021/08/21 06:33:12;;;;;;;28.37;22.70;;;;;;;16.31;92.97;101838.28;5097153;28;19908;-36
2021/08/21 06:35:38;;;;;;;28.40;21.47;;;;;;;16.43;92.31;101841.75;5096825;28;20282;-35
2021/08/21 06:38:03;;;;;;;26.42;21.42;;;;;;;16.58;91.25;101839.28;5096635;28;20266;-35
2021/08/21 06:40:28;;;;;;;;;;;;;;;16.77;91.34;101831.72;5097506;28;20028;-35
2021/08/21 06:42:54;;;;;;;24.00;21.00;;;;;;;16.89;90.16;101831.66;5096550;28;19911;-35
2021/08/21 06:45:19;;;;;;;27.17;21.67;;;;;;;17.01;91.18;101826.09;5096586;28;20257;-35
2021/08/21 06:47:44;;;;;;;;;;;;;;;17.17;90.90;101831.53;5096941;28;20051;-35
2021/08/21 06:50:10;;;;;;;25.52;19.75;;;;;;;17.23;89.84;101814.13;5096211;28;19907;-35
2021/08/21 06:52:36;;;;;;;21.40;18.98;;;;;;;17.45;89.04;101832.47;5095826;28;20444;-35
2021/08/21 06:55:02;;;;;;;;;;;;;;;17.62;89.84;101829.69;5096597;28;20034;-35
2021/08/21 06:57:27;;;;;;;23.45;18.05;;;;;;;17.64;88.40;101825.59;5115289;27;19911;-35
2021/08/21 06:59:52;;;;;;;;;;;;;;;17.82;89.30;101831.88;5137423;27;20053;-35
2021/08/21 07:02:18;;;;;;;21.05;18.55;;;;;;;17.83;88.23;101825.31;5126350;27;19912;-35
2021/08/21 07:04:43;;;;;;;;;;;;;;;18.00;88.73;101820.56;5116242;28;20475;-36
2021/08/21 07:07:09;;;;;;;19.50;16.30;;;;;;;17.80;88.11;101799.28;5116165;28;20275;-35
2021/08/21 07:09:36;;;;;;;22.05;17.52;;;;;;;17.94;88.37;101822.44;5116002;28;20745;-35
2021/08/21 07:12:01;;;;;;;19.23;17.15;;;;;;;17.96;87.63;101820.28;5116650;28;20149;-35
2021/08/21 07:14:27;;;;;;;21.33;17.92;;;;;;;17.96;87.29;101816.72;5116461;28;20457;-35
2021/08/21 07:16:52;;;;;;;;;;;;;;;18.08;87.64;101819.31;5116931;28;20475;-35
2021/08/21 07:19:17;;;;;;;19.27;15.80;;;;;;;18.02;87.13;101804.75;5116131;28;19912;-35
2021/08/21 07:21:43;;;;;;;;;;;;;;;18.15;87.72;101811.69;5116694;27;20249;-35
2021/08/21 07:24:08;;;;;;;21.00;16.10;;;;;;;18.12;87.29;101809.50;5115602;28;19904;-35
2021/08/21 07:26:33;;;;;;;;;;;;;;;18.25;87.76;101801.69;5116864;28;20265;-35
2021/08/21 07:28:58;;;;;;;17.60;15.13;;;;;;;18.18;86.79;101792.84;5116001;28;19904;-35
2021/08/21 07:31:24;;;;;;;;;;;;;;;18.37;86.87;101801.53;5116306;28;20269;-35
2021/08/21 07:33:49;;;;;;;17.02;14.55;;;;;;;18.36;87.10;101801.78;5115663;28;19951;-35
2021/08/21 07:36:14;;;;;;;;;;;;;;;18.50;87.18;101806.59;5116220;28;20066;-35
2021/08/21 07:38:40;;;;;;;15.93;14.30;;;;;;;18.48;85.86;101803.25;5115071;28;20352;-35
2021/08/21 07:41:05;;;;;;;;;;;;;;;18.59;86.92;101801.44;5116446;28;20250;-35
2021/08/21 07:43:30;;;;;;;18.20;14.33;;;;;;;18.53;85.97;101800.56;5115368;28;19907;-35
2021/08/21 07:45:55;;;;;;;;;;;;;;;18.65;86.26;101813.28;5116228;28;20254;-36
2021/08/21 07:48:21;;;;;;;18.27;14.95;;;;;;;18.68;84.62;101816.31;5115521;28;19933;-35
2021/08/21 07:50:46;;;;;;;;;;;;;;;18.82;85.18;101818.63;5115819;27;20059;-35
2021/08/21 07:53:12;;;;;;;20.90;16.08;;;;;;;18.78;85.01;101808.19;5115424;28;20010;-35
2021/08/21 07:55:37;;;;;;;;;;;;;;;18.92;85.62;101818.69;5116392;28;20034;-35
2021/08/21 07:58:04;;;;;;;17.75;15.85;;;;;;;18.87;85.05;101816.75;5115386;28;19907;-35
2021/08/21 08:00:30;;;;;;;21.85;16.92;;;;;;;19.01;83.99;101819.88;5115568;28;20078;-36
2021/08/21 08:02:55;;;;;;;;;;;;;;;19.13;84.50;101820.50;5115342;28;20359;-35
2021/08/21 08:05:21;;;;;;;18.43;15.50;;;;;;;19.22;83.46;101818.91;5115010;28;19915;-35
2021/08/21 08:07:46;;;;;;;;;;;;;;;19.36;84.27;101818.44;5115354;28;20256;-35
2021/08/21 08:10:11;;;;;;;16.93;15.00;;;;;;;19.38;82.29;101821.75;5115030;28;19912;-35
2021/08/21 08:12:36;;;;;;;;;;;;;;;19.53;83.48;101819.91;5115827;28;20020;-36
2021/08/21 08:15:02;;;;;;;18.58;15.68;;;;;;;19.51;82.12;101804.78;5114893;28;19930;-35
2021/08/21 08:17:28;;;;;;;;;;;;;;;19.73;83.86;101815.63;5115747;28;20020;-36
2021/08/21 08:19:53;;;;;;;19.67;14.67;;;;;;;19.71;81.85;101810.38;5115049;28;19910;-35
2021/08/21 08:22:19;;;;;;;;;;;;;;;19.90;82.85;101818.13;5115704;28;20245;-35
2021/08/21 08:24:46;;;;;;;16.30;14.48;;;;;;;19.91;80.11;101811.53;5114722;28;19998;-35
2021/08/21 08:27:13;;;;;;;19.40;15.45;;;;;;;19.96;79.25;101812.41;5114820;28;20020;-36
2021/08/21 08:29:39;;;;;;;17.80;15.15;;;;;;;20.04;81.05;101813.78;5114258;28;20035;-35
2021/08/21 08:32:04;;;;;;;;;;;;;;;20.18;81.30;101814.91;5115398;28;20023;-36
2021/08/21 08:34:29;;;;;;;17.23;14.50;;;;;;;20.22;78.05;101809.72;5114999;28;19966;-36
2021/08/21 08:36:55;;;;;;;;;;;;;;;20.37;79.75;101817.16;5115655;28;20042;-36
2021/08/21 08:39:20;;;;;;;17.63;14.02;;;;;;;20.45;77.82;101811.94;5113651;28;20346;-35
2021/08/21 08:41:45;;;;;;;16.27;12.77;;;;;;;20.45;76.98;101808.38;5114594;28;20023;-36
2021/08/21 08:44:11;;;;;;;;;;;;;;;20.60;79.32;101805.66;5115359;28;20020;-35
2021/08/21 08:46:37;;;;;;;14.85;11.70;;;;;;;20.65;77.33;101813.06;5115224;28;19927;-36
2021/08/21 08:49:02;;;;;;;13.25;10.93;;;;;;;20.66;75.90;101798.22;5113934;28;20116;-36
2021/08/21 08:51:28;;;;;;;;;;;;;;;20.83;76.36;101807.81;5113900;28;20073;-36
2021/08/21 08:53:53;;;;;;;12.88;9.95;;;;;;;20.83;75.71;101810.56;5112681;28;19933;-35
2021/08/21 08:56:19;;;;;;;13.70;10.63;;;;;;;20.94;73.38;101805.09;5114795;28;20027;-36
2021/08/21 08:58:44;;;;;;;12.93;10.48;;;;;;;21.03;72.39;101803.38;5114285;28;20030;-35
2021/08/21 09:01:09;;;;;;;;;;;;;;;21.17;75.12;101814.63;5115398;28;20027;-36
2021/08/21 09:03:35;;;;;;;10.90;7.67;;;;;;;21.22;73.28;101804.44;5114125;28;19907;-36
2021/08/21 09:06:00;;;;;;;;;;;;;;;21.37;74.54;101808.28;5114788;28;20376;-36
2021/08/21 09:08:27;;;;;;;9.48;7.28;;;;;;;21.33;71.08;101797.03;5113732;28;19953;-36
2021/08/21 09:10:58;;;;;;;12.18;8.30;;;;;;;21.31;69.99;101813.81;5114174;27;20538;-36
2021/08/21 09:13:25;;;;;;;11.27;8.55;;;;;;;21.36;70.35;101812.97;5113930;28;20501;-36
2021/08/21 09:15:58;;;;;;;11.05;8.35;;;;;;;21.38;70.61;101815.47;5114174;28;20027;-35
2021/08/21 09:18:30;;;;;;;10.32;8.02;;;;;;;21.48;71.17;101816.25;5114239;28;20053;-35
2021/08/21 09:21:01;;;;;;;10.73;8.05;;;;;;;21.51;69.40;101810.16;5114276;28;20020;-36
2021/08/21 09:23:35;;;;;;;10.82;7.13;;;;;;;21.62;70.92;101805.47;5114206;28;20015;-36
2021/08/21 09:26:26;;;;;;;9.75;7.60;;;;;;;21.63;70.18;101806.28;5114529;28;20063;-36
2021/08/21 09:28:56;;;;;;;8.65;6.35;;;;;;;21.55;69.39;101811.25;5114451;28;20089;-35
2021/08/21 09:31:23;;;;;;;7.50;6.10;;;;;;;21.58;68.49;101815.38;5113775;28;20020;-36
2021/08/21 09:34:01;;;;;;;9.32;5.95;;;;;;;21.62;69.44;101805.47;5113495;28;20138;-36
2021/08/21 09:36:27;;;;;;;6.65;5.53;;;;;;;21.64;69.40;101791.41;5111985;28;20387;-36
2021/08/21 09:38:52;;;;;;;9.38;5.85;;;;;;;21.96;68.17;101805.56;5113724;28;20030;-36
2021/08/21 09:41:17;;;;;;;6.72;5.07;;;;;;;22.03;67.33;101797.78;5113247;28;20031;-36
2021/08/21 09:43:42;;;;;;;6.13;4.25;;;;;;;22.13;67.21;101798.88;5113104;28;20034;-36
2021/08/21 09:46:15;;;;;;;6.35;4.70;;;;;;;22.23;66.15;101804.31;5114136;28;20020;-36
2021/08/21 09:49:07;;;;;;;9.30;5.47;;;;;;;22.22;65.64;101797.97;5113707;28;20016;-36
2021/08/21 09:51:45;;;;;;;6.45;5.15;;;;;;;22.35;65.29;101797.34;5111672;28;20080;-36
2021/08/21 09:54:20;;;;;;;6.28;4.95;;;;;;;22.44;63.99;101791.19;5113086;28;20024;-36
2021/08/21 09:56:55;;;;;;;9.02;4.72;;;;;;;22.64;64.46;101788.25;5113996;28;20055;-36
2021/08/21 09:59:40;;;;;;;5.97;4.40;;;;;;;22.68;62.01;101785.75;5114072;28;20363;-36
2021/08/21 10:02:08;;;;;;;6.82;4.35;;;;;;;22.75;62.26;101786.25;5113503;28;20015;-37
2021/08/21 10:04:34;;;;;;;5.35;4.38;;;;;;;22.86;62.56;101787.78;5113695;28;20383;-37
2021/08/21 10:07:04;;;;;;;4.55;3.17;;;;;;;22.92;59.49;101774.81;5113440;28;20028;-37
2021/08/21 10:09:30;;;;;;;3.35;2.75;;;;;;;23.05;61.30;101782.41;5113259;28;20019;-37
2021/08/21 10:11:56;;;;;;;5.72;4.13;;;;;;;23.05;61.36;101776.88;5113129;28;20066;-37
2021/08/21 10:14:24;;;;;;;6.03;2.95;;;;;;;23.26;59.52;101778.28;5113082;28;20016;-37
2021/08/21 10:16:49;;;;;;;4.80;2.97;;;;;;;23.34;58.52;101763.84;5113680;28;20030;-38
2021/08/21 10:19:18;;;;;;;4.28;2.92;;;;;;;23.37;59.78;101774.28;5113384;28;20103;-35
2021/08/21 10:21:49;;;;;;;6.18;3.70;;;;;;;23.58;61.87;101774.03;5112994;28;20028;-35
2021/08/21 10:24:28;;;;;;;6.18;4.05;;;;;;;23.56;60.11;101770.72;5113787;28;20024;-35
2021/08/21 10:26:59;;;;;;;6.25;4.50;;;;;;;23.59;60.24;101772.91;5112683;28;20093;-35
2021/08/21 10:29:25;;;;;;;6.65;4.45;;;;;;;23.62;59.43;101770.38;5112917;28;20496;-36
2021/08/21 10:31:50;;;;;;;7.30;4.97;;;;;;;23.66;59.71;101772.56;5113404;28;20015;-36
2021/08/21 10:34:16;;;;;;;6.50;4.65;;;;;;;23.81;59.25;101772.34;5113104;28;20108;-36
2021/08/21 10:36:47;;;;;;;6.20;4.20;;;;;;;23.85;61.57;101757.66;5113367;28;20035;-36
2021/08/21 10:39:24;;;;;;;6.68;5.00;;;;;;;23.93;60.27;101772.75;5121317;28;20035;-36
2021/08/21 10:41:55;;;;;;;6.18;3.40;;;;;;;23.96;58.35;101769.41;5115633;27;20019;-36
2021/08/21 10:44:42;;;;;;;6.18;4.25;;;;;;;24.03;59.61;101766.25;5113798;28;20023;-36
2021/08/21 10:47:09;;;;;;;6.88;3.90;;;;;;;24.10;58.48;101763.91;5115426;28;20024;-36
2021/08/21 10:49:45;;;;;;;5.18;3.33;;;;;;;24.18;59.37;101749.44;5116822;28;20027;-36
2021/08/21 10:52:29;;;;;;;;;;;;;;;24.49;59.57;101755.28;5113010;28;20028;-36
2021/08/21 10:54:54;;;;;;;5.43;3.33;;;;;;;24.35;58.59;101763.53;5112310;28;19953;-37
2021/08/21 10:57:28;;;;;;;3.55;3.10;;;;;;;24.55;57.37;101762.41;5112479;28;20398;-36
2021/08/21 10:59:54;;;;;;;4.03;2.40;;;;;;;24.58;56.07;101747.13;5112767;28;20023;-37
2021/08/21 11:02:26;;;;;;;4.47;2.45;;;;;;;24.79;55.32;101765.00;5113064;28;20027;-36
2021/08/21 11:04:55;;;;;;;4.90;2.75;;;;;;;24.75;56.33;101761.22;5112336;28;20367;-36
2021/08/21 11:07:41;;;;;;;4.57;3.67;;;;;;;24.58;57.25;101764.53;5112573;28;20019;-36
2021/08/21 11:10:30;;;;;;;6.35;3.30;;;;;;;24.51;57.75;101757.78;5113105;28;20027;-36
2021/08/21 11:12:55;;;;;;;5.72;3.50;;;;;;;24.28;54.72;101757.56;5113151;28;20026;-37
2021/08/21 11:15:23;;;;;;;4.40;2.58;;;;;;;24.44;55.06;101758.16;5116009;28;20460;-37
2021/08/21 11:17:49;;;;;;;3.90;2.33;;;;;;;24.40;54.90;101746.88;5115987;28;20128;-37
2021/08/21 11:20:24;;;;;;;3.63;2.05;;;;;;;24.47;55.68;101749.25;5116294;27;20028;-36
2021/08/21 11:23:07;;;;;;;3.40;1.85;;;;;;;24.56;55.22;101744.69;5116354;28;20023;-36
2021/08/21 11:25:36;;;;;;;3.67;2.17;;;;;;;24.40;55.47;101733.06;5115917;28;20060;-36
2021/08/21 11:28:07;;;;;;;3.65;2.40;;;;;;;24.34;56.77;101731.47;5116594;28;20034;-36